sensor_id;sensor_type;location;lat;lon;timestamp;pressure;altitude;pressure_sealevel;temperature;humidity
72587;BME280;60621;49.576;11.024;2022-12-07T00:00:54;98317.13;;;4.60;75.74
72587;BME280;60621;49.576;11.024;2022-12-07T00:01:55;98319.06;;;4.63;75.60
72587;BME280;60621;49.576;11.024;2022-12-07T00:02:57;98316.78;;;4.62;75.65
72587;BME280;60621;49.576;11.024;2022-12-07T00:04:00;98316.63;;;4.58;75.83
72587;BME280;60621;49.576;11.024;2022-12-07T00:05:06;98317.13;;;4.60;75.50
72587;BME280;60621;49.576;11.024;2022-12-07T00:06:09;98322.22;;;4.48;75.87
72587;BME280;60621;49.576;11.024;2022-12-07T00:07:11;98320.03;;;4.50;75.93
72587;BME280;60621;49.576;11.024;2022-12-07T00:08:12;98318.34;;;4.54;75.48
72587;BME280;60621;49.576;11.024;2022-12-07T00:09:15;98319.13;;;4.46;75.86
72587;BME280;60621;49.576;11.024;2022-12-07T00:10:18;98308.84;;;4.41;75.62
72587;BME280;60621;49.576;11.024;2022-12-07T00:11:20;98315.34;;;4.35;76.10
72587;BME280;60621;49.576;11.024;2022-12-07T00:12:22;98314.75;;;4.29;76.56
72587;BME280;60621;49.576;11.024;2022-12-07T00:13:23;98313.84;;;4.25;76.57
72587;BME280;60621;49.576;11.024;2022-12-07T00:14:25;98311.06;;;4.30;76.91
72587;BME280;60621;49.576;11.024;2022-12-07T00:15:26;98304.56;;;4.36;76.81
72587;BME280;60621;49.576;11.024;2022-12-07T00:16:30;98312.88;;;4.39;76.59
72587;BME280;60621;49.576;11.024;2022-12-07T00:17:31;98305.94;;;4.43;76.00
72587;BME280;60621;49.576;11.024;2022-12-07T00:18:35;98307.81;;;4.42;76.03
72587;BME280;60621;49.576;11.024;2022-12-07T00:19:37;98312.72;;;4.44;76.31
72587;BME280;60621;49.576;11.024;2022-12-07T00:20:38;98308.69;;;4.46;75.63
72587;BME280;60621;49.576;11.024;2022-12-07T00:21:40;98308.06;;;4.49;76.36
72587;BME280;60621;49.576;11.024;2022-12-07T00:22:42;98310.34;;;4.51;76.25
72587;BME280;60621;49.576;11.024;2022-12-07T00:23:45;98313.28;;;4.49;76.06
72587;BME280;60621;49.576;11.024;2022-12-07T00:24:47;98311.00;;;4.48;76.23
72587;BME280;60621;49.576;11.024;2022-12-07T00:25:49;98314.81;;;4.50;75.94
72587;BME280;60621;49.576;11.024;2022-12-07T00:26:50;98313.13;;;4.54;76.07
72587;BME280;60621;49.576;11.024;2022-12-07T00:27:53;98314.78;;;4.59;76.13
72587;BME280;60621;49.576;11.024;2022-12-07T00:28:59;98313.13;;;4.54;75.92
72587;BME280;60621;49.576;11.024;2022-12-07T00:30:01;98311.19;;;4.43;76.17
72587;BME280;60621;49.576;11.024;2022-12-07T00:31:04;98313.50;;;4.35;76.63
72587;BME280;60621;49.576;11.024;2022-12-07T00:32:06;98312.56;;;4.40;76.35
72587;BME280;60621;49.576;11.024;2022-12-07T00:33:07;98308.09;;;4.41;76.47
72587;BME280;60621;49.576;11.024;2022-12-07T00:34:15;98309.47;;;4.47;76.33
72587;BME280;60621;49.576;11.024;2022-12-07T00:35:18;98302.41;;;4.47;75.59
72587;BME280;60621;49.576;11.024;2022-12-07T00:36:22;98305.78;;;4.48;75.89
72587;BME280;60621;49.576;11.024;2022-12-07T00:37:27;98301.16;;;4.45;76.11
72587;BME280;60621;49.576;11.024;2022-12-07T00:38:30;98303.94;;;4.48;75.77
72587;BME280;60621;49.576;11.024;2022-12-07T00:39:32;98299.47;;;4.49;75.50
72587;BME280;60621;49.576;11.024;2022-12-07T00:40:34;98304.25;;;4.47;76.16
72587;BME280;60621;49.576;11.024;2022-12-07T00:41:36;98298.38;;;4.50;75.85
72587;BME280;60621;49.576;11.024;2022-12-07T00:42:37;98298.84;;;4.52;75.44
72587;BME280;60621;49.576;11.024;2022-12-07T00:43:40;98298.88;;;4.43;76.30
72587;BME280;60621;49.576;11.024;2022-12-07T00:44:42;98296.13;;;4.40;75.97
72587;BME280;60621;49.576;11.024;2022-12-07T00:45:43;98304.72;;;4.40;76.41
72587;BME280;60621;49.576;11.024;2022-12-07T00:46:45;98307.19;;;4.36;76.71
72587;BME280;60621;49.576;11.024;2022-12-07T00:47:46;98311.03;;;4.39;76.39
72587;BME280;60621;49.576;11.024;2022-12-07T00:48:50;98306.25;;;4.41;76.26
72587;BME280;60621;49.576;11.024;2022-12-07T00:49:52;98301.50;;;4.43;76.04
72587;BME280;60621;49.576;11.024;2022-12-07T00:50:53;98300.44;;;4.35;76.43
72587;BME280;60621;49.576;11.024;2022-12-07T00:51:55;98304.91;;;4.35;75.91
72587;BME280;60621;49.576;11.024;2022-12-07T00:52:56;98303.38;;;4.34;76.37
72587;BME280;60621;49.576;11.024;2022-12-07T00:53:58;98294.44;;;4.35;76.28
72587;BME280;60621;49.576;11.024;2022-12-07T00:54:59;98305.81;;;4.39;76.42
72587;BME280;60621;49.576;11.024;2022-12-07T00:56:07;98297.66;;;4.41;75.94
72587;BME280;60621;49.576;11.024;2022-12-07T00:57:09;98302.28;;;4.35;76.01
72587;BME280;60621;49.576;11.024;2022-12-07T00:58:10;98304.44;;;4.33;76.22
72587;BME280;60621;49.576;11.024;2022-12-07T00:59:13;98300.00;;;4.33;76.73
72587;BME280;60621;49.576;11.024;2022-12-07T01:00:18;98303.97;;;4.40;76.25
72587;BME280;60621;49.576;11.024;2022-12-07T01:01:19;98306.88;;;4.38;76.47
72587;BME280;60621;49.576;11.024;2022-12-07T01:02:21;98302.88;;;4.41;76.67
72587;BME280;60621;49.576;11.024;2022-12-07T01:03:23;98300.28;;;4.32;76.72
72587;BME280;60621;49.576;11.024;2022-12-07T01:04:25;98296.91;;;4.31;76.72
72587;BME280;60621;49.576;11.024;2022-12-07T01:05:26;98299.22;;;4.33;76.60
72587;BME280;60621;49.576;11.024;2022-12-07T01:06:28;98306.41;;;4.36;76.22
72587;BME280;60621;49.576;11.024;2022-12-07T01:07:30;98292.00;;;4.30;76.16
72587;BME280;60621;49.576;11.024;2022-12-07T01:08:32;98300.75;;;4.34;76.45
72587;BME280;60621;49.576;11.024;2022-12-07T01:09:34;98298.91;;;4.34;76.16
72587;BME280;60621;49.576;11.024;2022-12-07T01:10:36;98299.22;;;4.33;76.57
72587;BME280;60621;49.576;11.024;2022-12-07T01:11:37;98297.06;;;4.35;76.64
72587;BME280;60621;49.576;11.024;2022-12-07T01:12:40;98299.66;;;4.35;76.02
72587;BME280;60621;49.576;11.024;2022-12-07T01:13:41;98300.13;;;4.37;75.99
72587;BME280;60621;49.576;11.024;2022-12-07T01:14:43;98299.97;;;4.42;76.51
72587;BME280;60621;49.576;11.024;2022-12-07T01:15:45;98301.16;;;4.45;76.07
72587;BME280;60621;49.576;11.024;2022-12-07T01:16:46;98300.84;;;4.46;76.38
72587;BME280;60621;49.576;11.024;2022-12-07T01:17:48;98304.25;;;4.47;76.30
72587;BME280;60621;49.576;11.024;2022-12-07T01:18:52;98300.44;;;4.35;76.06
72587;BME280;60621;49.576;11.024;2022-12-07T01:19:54;98297.66;;;4.32;76.46
72587;BME280;60621;49.576;11.024;2022-12-07T01:21:02;98303.03;;;4.35;76.27
72587;BME280;60621;49.576;11.024;2022-12-07T01:22:04;98300.75;;;4.34;76.04
72587;BME280;60621;49.576;11.024;2022-12-07T01:23:06;98301.81;;;4.42;76.34
72587;BME280;60621;49.576;11.024;2022-12-07T01:24:10;98298.88;;;4.43;75.96
72587;BME280;60621;49.576;11.024;2022-12-07T01:25:12;98295.63;;;4.46;75.81
72587;BME280;60621;49.576;11.024;2022-12-07T01:26:16;98293.47;;;4.48;75.75
72587;BME280;60621;49.576;11.024;2022-12-07T01:27:18;98297.78;;;4.53;76.19
72587;BME280;60621;49.576;11.024;2022-12-07T01:28:19;98297.00;;;4.52;76.00
72587;BME280;60621;49.576;11.024;2022-12-07T01:29:20;98298.84;;;4.52;75.84
72587;BME280;60621;49.576;11.024;2022-12-07T01:30:22;98300.38;;;4.53;76.17
72587;BME280;60621;49.576;11.024;2022-12-07T01:31:25;98295.59;;;4.55;75.91
72587;BME280;60621;49.576;11.024;2022-12-07T01:32:27;98295.91;;;4.53;75.58
72587;BME280;60621;49.576;11.024;2022-12-07T01:33:31;98297.00;;;4.52;75.63
72587;BME280;60621;49.576;11.024;2022-12-07T01:34:33;98297.78;;;4.53;75.49
72587;BME280;60621;49.576;11.024;2022-12-07T01:35:35;98296.84;;;4.49;75.35
72587;BME280;60621;49.576;11.024;2022-12-07T01:36:36;98305.94;;;4.51;75.61
72587;BME280;60621;49.576;11.024;2022-12-07T01:37:39;98303.00;;;4.53;75.70
72587;BME280;60621;49.576;11.024;2022-12-07T01:38:41;98298.97;;;4.55;75.39
72587;BME280;60621;49.576;11.024;2022-12-07T01:39:43;98306.50;;;4.57;75.55
72587;BME280;60621;49.576;11.024;2022-12-07T01:40:44;98302.22;;;4.52;75.82
72587;BME280;60621;49.576;11.024;2022-12-07T01:41:46;98307.44;;;4.52;75.82
72587;BME280;60621;49.576;11.024;2022-12-07T01:42:47;98305.13;;;4.51;75.84
72587;BME280;60621;49.576;11.024;2022-12-07T01:44:21;98298.84;;;4.52;75.87
72587;BME280;60621;49.576;11.024;2022-12-07T01:45:42;98303.44;;;4.55;75.72
72587;BME280;60621;49.576;11.024;2022-12-07T01:47:52;98298.56;;;4.45;75.75
72587;BME280;60621;49.576;11.024;2022-12-07T01:48:55;98300.56;;;4.48;75.52
72587;BME280;60621;49.576;11.024;2022-12-07T01:49:56;98301.31;;;4.48;75.60
72587;BME280;60621;49.576;11.024;2022-12-07T01:51:02;98304.06;;;4.52;75.60
72587;BME280;60621;49.576;11.024;2022-12-07T01:52:15;98309.59;;;4.50;75.56
72587;BME280;60621;49.576;11.024;2022-12-07T01:53:17;98302.84;;;4.49;75.54
72587;BME280;60621;49.576;11.024;2022-12-07T01:54:19;98305.94;;;4.43;75.51
72587;BME280;60621;49.576;11.024;2022-12-07T01:55:22;98306.41;;;4.45;75.57
72587;BME280;60621;49.576;11.024;2022-12-07T01:56:26;98302.69;;;4.46;75.80
72587;BME280;60621;49.576;11.024;2022-12-07T01:57:29;98306.06;;;4.46;75.23
72587;BME280;60621;49.576;11.024;2022-12-07T01:58:32;98301.94;;;4.45;75.67
72587;BME280;60621;49.576;11.024;2022-12-07T01:59:34;98308.41;;;4.48;76.11
72587;BME280;60621;49.576;11.024;2022-12-07T02:00:36;98308.06;;;4.49;75.69
72587;BME280;60621;49.576;11.024;2022-12-07T02:01:37;98312.97;;;4.51;75.61
72587;BME280;60621;49.576;11.024;2022-12-07T02:02:47;98310.69;;;4.49;75.76
72587;BME280;60621;49.576;11.024;2022-12-07T02:03:51;98301.00;;;4.50;75.87
72587;BME280;60621;49.576;11.024;2022-12-07T02:04:55;98299.47;;;4.49;74.84
72587;BME280;60621;49.576;11.024;2022-12-07T02:05:59;98301.00;;;4.50;75.81
72587;BME280;60621;49.576;11.024;2022-12-07T02:07:02;98305.28;;;4.54;75.31
72587;BME280;60621;49.576;11.024;2022-12-07T02:08:05;98295.16;;;4.53;75.65
72587;BME280;60621;49.576;11.024;2022-12-07T02:09:07;98302.22;;;4.52;75.56
72587;BME280;60621;49.576;11.024;2022-12-07T02:10:14;98300.56;;;4.48;75.41
72587;BME280;60621;49.576;11.024;2022-12-07T02:11:16;98295.78;;;4.41;75.47
72587;BME280;60621;49.576;11.024;2022-12-07T02:12:19;98302.25;;;4.44;75.33
72587;BME280;60621;49.576;11.024;2022-12-07T02:13:30;98301.97;;;4.36;75.58
72587;BME280;60621;49.576;11.024;2022-12-07T02:14:33;98296.78;;;4.28;76.01
72587;BME280;60621;49.576;11.024;2022-12-07T02:17:13;98292.63;;;4.27;76.39
72587;BME280;60621;49.576;11.024;2022-12-07T02:22:42;98296.66;;;4.16;75.92
72587;BME280;60621;49.576;11.024;2022-12-07T02:24:13;98295.72;;;4.20;76.36
72587;BME280;60621;49.576;11.024;2022-12-07T02:26:48;98296.91;;;4.31;76.19
72587;BME280;60621;49.576;11.024;2022-12-07T02:29:17;98291.69;;;4.31;75.93
72587;BME280;60621;49.576;11.024;2022-12-07T02:30:27;98287.56;;;4.30;75.59
72587;BME280;60621;49.576;11.024;2022-12-07T02:31:32;98288.63;;;4.29;75.60
72587;BME280;60621;49.576;11.024;2022-12-07T02:32:51;98294.78;;;4.25;75.79
72587;BME280;60621;49.576;11.024;2022-12-07T02:34:10;98292.34;;;4.28;75.56
72587;BME280;60621;49.576;11.024;2022-12-07T02:35:43;98283.56;;;4.33;75.74
72587;BME280;60621;49.576;11.024;2022-12-07T02:36:52;98291.50;;;4.36;75.64
72587;BME280;60621;49.576;11.024;2022-12-07T02:38:04;98282.78;;;4.32;75.74
72587;BME280;60621;49.576;11.024;2022-12-07T02:39:18;98283.84;;;4.31;75.51
72587;BME280;60621;49.576;11.024;2022-12-07T02:40:32;98290.63;;;4.32;75.96
72587;BME280;60621;49.576;11.024;2022-12-07T02:41:39;98287.09;;;4.28;75.40
72587;BME280;60621;49.576;11.024;2022-12-07T02:42:48;98285.59;;;4.27;75.87
72587;BME280;60621;49.576;11.024;2022-12-07T02:43:54;98275.75;;;4.24;76.09
72587;BME280;60621;49.576;11.024;2022-12-07T02:44:57;98267.94;;;4.16;76.41
72587;BME280;60621;49.576;11.024;2022-12-07T02:46:04;98269.63;;;4.11;75.77
72587;BME280;60621;49.576;11.024;2022-12-07T02:47:09;98263.22;;;4.09;76.30
72587;BME280;60621;49.576;11.024;2022-12-07T02:48:15;98263.06;;;4.05;76.20
72587;BME280;60621;49.576;11.024;2022-12-07T02:49:18;98257.53;;;4.07;76.04
72587;BME280;60621;49.576;11.024;2022-12-07T02:50:21;98255.09;;;3.93;76.50
72587;BME280;60621;49.576;11.024;2022-12-07T02:51:23;98252.97;;;3.95;76.67
72587;BME280;60621;49.576;11.024;2022-12-07T02:52:24;98243.59;;;3.94;76.38
72587;BME280;60621;49.576;11.024;2022-12-07T02:53:42;98244.97;;;3.92;76.38
72587;BME280;60621;49.576;11.024;2022-12-07T02:54:44;98245.13;;;3.95;76.54
72587;BME280;60621;49.576;11.024;2022-12-07T02:55:46;98246.81;;;4.00;77.00
72587;BME280;60621;49.576;11.024;2022-12-07T02:58:20;98248.94;;;3.98;76.58
72587;BME280;60621;49.576;11.024;2022-12-07T03:00:58;98242.53;;;3.78;77.19
72587;BME280;60621;49.576;11.024;2022-12-07T03:02:31;98249.63;;;3.77;76.56
72587;BME280;60621;49.576;11.024;2022-12-07T03:03:37;98252.06;;;3.74;77.07
72587;BME280;60621;49.576;11.024;2022-12-07T03:06:28;98249.00;;;3.72;76.63
72587;BME280;60621;49.576;11.024;2022-12-07T03:09:10;98249.78;;;3.72;77.53
72587;BME280;60621;49.576;11.024;2022-12-07T03:10:27;98248.84;;;3.77;77.04
72587;BME280;60621;49.576;11.024;2022-12-07T03:11:49;98251.63;;;3.72;77.20
72587;BME280;60621;49.576;11.024;2022-12-07T03:13:04;98250.69;;;3.76;76.79
72587;BME280;60621;49.576;11.024;2022-12-07T03:14:19;98258.97;;;3.78;76.89
72587;BME280;60621;49.576;11.024;2022-12-07T03:15:43;98247.44;;;3.79;77.01
72587;BME280;60621;49.576;11.024;2022-12-07T03:16:52;98255.75;;;3.81;77.32
72587;BME280;60621;49.576;11.024;2022-12-07T03:17:58;98245.47;;;3.85;76.73
72587;BME280;60621;49.576;11.024;2022-12-07T03:19:07;98249.44;;;3.82;76.73
72587;BME280;60621;49.576;11.024;2022-12-07T03:20:14;98243.63;;;3.85;76.14
72587;BME280;60621;49.576;11.024;2022-12-07T03:21:21;98248.84;;;3.77;76.93
72587;BME280;60621;49.576;11.024;2022-12-07T03:22:28;98249.00;;;3.80;76.78
72587;BME280;60621;49.576;11.024;2022-12-07T03:23:32;98244.84;;;3.79;76.69
72587;BME280;60621;49.576;11.024;2022-12-07T03:24:49;98244.84;;;3.79;76.54
72587;BME280;60621;49.576;11.024;2022-12-07T03:25:57;98239.31;;;3.81;76.67
72587;BME280;60621;49.576;11.024;2022-12-07T03:27:08;98254.41;;;3.67;76.48
72587;BME280;60621;49.576;11.024;2022-12-07T03:28:13;98262.97;;;3.67;76.40
72587;BME280;60621;49.576;11.024;2022-12-07T03:29:26;98255.59;;;3.69;76.89
72587;BME280;60621;49.576;11.024;2022-12-07T03:30:56;98252.06;;;3.74;77.17
72587;BME280;60621;49.576;11.024;2022-12-07T03:32:05;98252.22;;;3.77;76.59
72587;BME280;60621;49.576;11.024;2022-12-07T03:33:26;98242.69;;;3.81;76.61
72587;BME280;60621;49.576;11.024;2022-12-07T03:34:52;98246.22;;;3.85;76.58
72587;BME280;60621;49.576;11.024;2022-12-07T03:36:05;98237.63;;;3.85;76.20
72587;BME280;60621;49.576;11.024;2022-12-07T03:37:12;98230.56;;;3.85;76.19
72587;BME280;60621;49.576;11.024;2022-12-07T03:38:24;98234.69;;;3.87;76.21
72587;BME280;60621;49.576;11.024;2022-12-07T03:40:49;98224.09;;;3.92;76.33
72587;BME280;60621;49.576;11.024;2022-12-07T03:41:54;98226.28;;;3.72;75.77
72587;BME280;60621;49.576;11.024;2022-12-07T03:42:59;98231.50;;;3.72;75.95
72587;BME280;60621;49.576;11.024;2022-12-07T03:44:03;98237.50;;;3.64;76.58
72587;BME280;60621;49.576;11.024;2022-12-07T03:45:09;98235.66;;;3.65;76.89
72587;BME280;60621;49.576;11.024;2022-12-07T03:46:19;98245.03;;;3.66;76.61
72587;BME280;60621;49.576;11.024;2022-12-07T03:47:45;98244.56;;;3.64;76.16
72587;BME280;60621;49.576;11.024;2022-12-07T03:51:22;98238.09;;;3.70;76.71
72587;BME280;60621;49.576;11.024;2022-12-07T03:52:45;98235.50;;;3.70;76.20
72587;BME280;60621;49.576;11.024;2022-12-07T03:53:55;98234.44;;;3.71;76.65
72587;BME280;60621;49.576;11.024;2022-12-07T03:55:20;98233.97;;;3.69;76.06
72587;BME280;60621;49.576;11.024;2022-12-07T03:56:25;98234.59;;;3.66;76.01
72587;BME280;60621;49.576;11.024;2022-12-07T03:57:29;98231.19;;;3.65;76.63
72587;BME280;60621;49.576;11.024;2022-12-07T03:58:33;98236.25;;;3.70;76.59
72587;BME280;60621;49.576;11.024;2022-12-07T03:59:35;98235.66;;;3.73;76.22
72587;BME280;60621;49.576;11.024;2022-12-07T04:00:40;98241.63;;;3.74;76.17
72587;BME280;60621;49.576;11.024;2022-12-07T04:01:44;98236.72;;;3.72;75.72
72587;BME280;60621;49.576;11.024;2022-12-07T04:02:45;98241.94;;;3.72;75.88
72587;BME280;60621;49.576;11.024;2022-12-07T04:03:48;98238.88;;;3.70;75.75
72587;BME280;60621;49.576;11.024;2022-12-07T04:04:50;98244.56;;;3.72;76.33
72587;BME280;60621;49.576;11.024;2022-12-07T04:05:52;98237.19;;;3.74;76.43
72587;BME280;60621;49.576;11.024;2022-12-07T04:06:54;98236.56;;;3.77;75.55
72587;BME280;60621;49.576;11.024;2022-12-07T04:07:56;98237.31;;;3.78;76.15
72587;BME280;60621;49.576;11.024;2022-12-07T04:08:57;98237.66;;;3.76;75.31
72587;BME280;60621;49.576;11.024;2022-12-07T04:09:59;98237.94;;;3.75;75.92
72587;BME280;60621;49.576;11.024;2022-12-07T04:11:01;98237.81;;;3.71;75.61
72587;BME280;60621;49.576;11.024;2022-12-07T04:12:03;98238.09;;;3.70;76.31
72587;BME280;60621;49.576;11.024;2022-12-07T04:13:05;98238.41;;;3.68;76.20
72587;BME280;60621;49.576;11.024;2022-12-07T04:14:06;98238.41;;;3.68;76.06
72587;BME280;60621;49.576;11.024;2022-12-07T04:15:20;98242.13;;;3.67;75.89
72587;BME280;60621;49.576;11.024;2022-12-07T04:16:21;98240.25;;;3.68;75.32
72587;BME280;60621;49.576;11.024;2022-12-07T04:17:23;98233.38;;;3.63;75.72
72587;BME280;60621;49.576;11.024;2022-12-07T04:18:24;98241.50;;;3.62;75.79
72587;BME280;60621;49.576;11.024;2022-12-07T04:19:28;98241.34;;;3.58;76.38
72587;BME280;60621;49.576;11.024;2022-12-07T04:20:30;98242.75;;;3.47;76.27
72587;BME280;60621;49.576;11.024;2022-12-07T04:21:32;98242.75;;;3.38;77.04
72587;BME280;60621;49.576;11.024;2022-12-07T04:22:33;98246.75;;;3.44;76.80
72587;BME280;60621;49.576;11.024;2022-12-07T04:23:35;98245.22;;;3.43;76.86
72587;BME280;60621;49.576;11.024;2022-12-07T04:24:36;98245.66;;;3.37;76.77
72587;BME280;60621;49.576;11.024;2022-12-07T04:25:38;98249.81;;;3.38;77.34
72587;BME280;60621;49.576;11.024;2022-12-07T04:26:40;98247.22;;;3.38;77.40
72587;BME280;60621;49.576;11.024;2022-12-07T04:27:42;98237.06;;;3.36;77.22
72587;BME280;60621;49.576;11.024;2022-12-07T04:28:43;98235.09;;;3.33;77.20
72587;BME280;60621;49.576;11.024;2022-12-07T04:29:45;98242.91;;;3.33;77.38
72587;BME280;60621;49.576;11.024;2022-12-07T04:30:46;98235.25;;;3.19;77.55
72587;BME280;60621;49.576;11.024;2022-12-07T04:31:48;98239.22;;;3.08;78.37
72587;BME280;60621;49.576;11.024;2022-12-07T04:32:50;98241.03;;;2.99;78.37
72587;BME280;60621;49.576;11.024;2022-12-07T04:33:52;98236.59;;;3.08;79.08
72587;BME280;60621;49.576;11.024;2022-12-07T04:34:53;98245.50;;;3.16;78.50
72587;BME280;60621;49.576;11.024;2022-12-07T04:35:56;98240.91;;;3.21;78.11
72587;BME280;60621;49.576;11.024;2022-12-07T04:36:57;98240.91;;;3.21;77.89
72587;BME280;60621;49.576;11.024;2022-12-07T04:37:59;98243.19;;;3.23;77.78
72587;BME280;60621;49.576;11.024;2022-12-07T04:39:01;98245.19;;;3.26;77.98
72587;BME280;60621;49.576;11.024;2022-12-07T04:40:04;98236.00;;;3.28;77.64
72587;BME280;60621;49.576;11.024;2022-12-07T04:41:07;98233.25;;;3.25;77.54
72587;BME280;60621;49.576;11.024;2022-12-07T04:42:09;98237.22;;;3.31;77.32
72587;BME280;60621;49.576;11.024;2022-12-07T04:43:10;98233.69;;;3.27;77.11
72587;BME280;60621;49.576;11.024;2022-12-07T04:44:13;98233.09;;;3.21;77.82
72587;BME280;60621;49.576;11.024;2022-12-07T04:45:15;98231.72;;;3.15;78.25
72587;BME280;60621;49.576;11.024;2022-12-07T04:46:17;98231.41;;;3.17;78.05
72587;BME280;60621;49.576;11.024;2022-12-07T04:47:20;98229.88;;;3.16;78.17
72587;BME280;60621;49.576;11.024;2022-12-07T04:48:22;98231.72;;;3.15;78.37
72587;BME280;60621;49.576;11.024;2022-12-07T04:49:24;98227.72;;;3.18;77.82
72587;BME280;60621;49.576;11.024;2022-12-07T04:50:26;98232.03;;;3.14;77.82
72587;BME280;60621;49.576;11.024;2022-12-07T04:51:28;98236.94;;;3.15;77.97
72587;BME280;60621;49.576;11.024;2022-12-07T04:52:30;98237.09;;;3.19;77.70
72587;BME280;60621;49.576;11.024;2022-12-07T04:53:31;98236.16;;;3.15;77.78
72587;BME280;60621;49.576;11.024;2022-12-07T04:54:33;98230.94;;;3.15;77.28
72587;BME280;60621;49.576;11.024;2022-12-07T04:55:34;98230.47;;;3.13;78.03
72587;BME280;60621;49.576;11.024;2022-12-07T04:56:36;98236.31;;;3.18;77.86
72587;BME280;60621;49.576;11.024;2022-12-07T04:57:40;98241.38;;;3.15;77.82
72587;BME280;60621;49.576;11.024;2022-12-07T04:58:53;98235.84;;;3.16;77.40
72587;BME280;60621;49.576;11.024;2022-12-07T04:59:55;98235.53;;;3.18;78.09
72587;BME280;60621;49.576;11.024;2022-12-07T05:00:56;98239.81;;;3.22;77.78
72587;BME280;60621;49.576;11.024;2022-12-07T05:01:58;98239.22;;;3.25;77.31
72587;BME280;60621;49.576;11.024;2022-12-07T05:02:59;98237.22;;;3.22;77.27
72587;BME280;60621;49.576;11.024;2022-12-07T05:04:01;98234.63;;;3.14;77.52
72587;BME280;60621;49.576;11.024;2022-12-07T05:05:02;98234.78;;;3.17;77.03
72587;BME280;60621;49.576;11.024;2022-12-07T05:06:05;98240.47;;;3.19;77.33
72587;BME280;60621;49.576;11.024;2022-12-07T05:07:13;98240.91;;;3.21;77.68
72587;BME280;60621;49.576;11.024;2022-12-07T05:08:14;98243.06;;;3.28;77.48
72587;BME280;60621;49.576;11.024;2022-12-07T05:09:16;98246.44;;;3.28;76.98
72587;BME280;60621;49.576;11.024;2022-12-07T05:10:18;98238.31;;;3.21;76.79
72587;BME280;60621;49.576;11.024;2022-12-07T05:11:20;98241.53;;;3.18;77.26
72587;BME280;60621;49.576;11.024;2022-12-07T05:12:39;98243.34;;;3.26;77.03
72587;BME280;60621;49.576;11.024;2022-12-07T05:13:40;98241.84;;;3.25;76.74
72587;BME280;60621;49.576;11.024;2022-12-07T05:14:42;98237.53;;;3.21;77.00
72587;BME280;60621;49.576;11.024;2022-12-07T05:15:44;98235.09;;;3.16;76.94
72587;BME280;60621;49.576;11.024;2022-12-07T05:16:47;98240.31;;;3.16;76.71
72587;BME280;60621;49.576;11.024;2022-12-07T05:17:49;98246.59;;;3.23;77.06
72587;BME280;60621;49.576;11.024;2022-12-07T05:18:53;98237.38;;;3.26;77.12
72587;BME280;60621;49.576;11.024;2022-12-07T05:19:55;98240.00;;;3.26;77.06
72587;BME280;60621;49.576;11.024;2022-12-07T05:20:57;98239.06;;;3.22;76.77
72587;BME280;60621;49.576;11.024;2022-12-07T05:21:58;98239.53;;;3.24;77.08
72587;BME280;60621;49.576;11.024;2022-12-07T05:22:59;98240.31;;;3.33;77.46
72587;BME280;60621;49.576;11.024;2022-12-07T05:24:01;98240.59;;;3.31;76.49
72587;BME280;60621;49.576;11.024;2022-12-07T05:25:03;98240.16;;;3.38;77.10
72587;BME280;60621;49.576;11.024;2022-12-07T05:26:04;98237.38;;;3.34;76.63
72587;BME280;60621;49.576;11.024;2022-12-07T05:27:06;98241.53;;;3.36;76.57
72587;BME280;60621;49.576;11.024;2022-12-07T05:28:07;98240.59;;;3.31;76.34
72587;BME280;60621;49.576;11.024;2022-12-07T05:29:14;98243.34;;;3.26;76.27
72587;BME280;60621;49.576;11.024;2022-12-07T05:30:16;98244.00;;;3.23;76.60
72587;BME280;60621;49.576;11.024;2022-12-07T05:31:17;98239.84;;;3.31;77.16
72587;BME280;60621;49.576;11.024;2022-12-07T05:32:19;98246.13;;;3.30;76.54
72587;BME280;60621;49.576;11.024;2022-12-07T05:33:21;98241.53;;;3.36;77.11
72587;BME280;60621;49.576;11.024;2022-12-07T05:34:22;98243.97;;;3.41;76.52
72587;BME280;60621;49.576;11.024;2022-12-07T05:35:24;98241.19;;;3.46;76.69
72587;BME280;60621;49.576;11.024;2022-12-07T05:36:26;98244.13;;;3.53;76.86
72587;BME280;60621;49.576;11.024;2022-12-07T05:37:29;98250.41;;;3.52;76.21
72587;BME280;60621;49.576;11.024;2022-12-07T05:38:32;98248.56;;;3.52;76.11
72587;BME280;60621;49.576;11.024;2022-12-07T05:39:34;98244.56;;;3.55;75.96
72587;BME280;60621;49.576;11.024;2022-12-07T05:40:36;98243.66;;;3.59;76.12
72587;BME280;60621;49.576;11.024;2022-12-07T05:41:37;98240.13;;;3.55;75.26
72587;BME280;60621;49.576;11.024;2022-12-07T05:42:58;98239.84;;;3.57;75.72
72587;BME280;60621;49.576;11.024;2022-12-07T05:44:05;98242.88;;;3.59;75.93
72587;BME280;60621;49.576;11.024;2022-12-07T05:45:08;98230.44;;;3.56;75.53
72587;BME280;60621;49.576;11.024;2022-12-07T05:46:09;98231.09;;;3.53;76.04
72587;BME280;60621;49.576;11.024;2022-12-07T05:47:12;98229.25;;;3.53;76.31
72587;BME280;60621;49.576;11.024;2022-12-07T05:48:14;98234.31;;;3.41;75.82
72587;BME280;60621;49.576;11.024;2022-12-07T05:49:15;98227.41;;;3.37;76.19
72587;BME280;60621;49.576;11.024;2022-12-07T05:50:17;98225.44;;;3.33;76.33
72587;BME280;60621;49.576;11.024;2022-12-07T05:51:18;98224.94;;;3.31;76.13
72587;BME280;60621;49.576;11.024;2022-12-07T05:52:20;98223.59;;;3.25;76.48
72587;BME280;60621;49.576;11.024;2022-12-07T05:53:22;98230.66;;;3.33;76.06
72587;BME280;60621;49.576;11.024;2022-12-07T05:54:23;98228.19;;;3.37;76.34
72587;BME280;60621;49.576;11.024;2022-12-07T05:55:25;98226.19;;;3.34;76.15
72587;BME280;60621;49.576;11.024;2022-12-07T05:56:26;98228.03;;;3.33;76.18
72587;BME280;60621;49.576;11.024;2022-12-07T05:57:28;98228.97;;;3.38;75.95
72587;BME280;60621;49.576;11.024;2022-12-07T05:58:29;98225.13;;;3.35;75.99
72587;BME280;60621;49.576;11.024;2022-12-07T05:59:49;98232.31;;;3.21;77.46
72587;BME280;60621;49.576;11.024;2022-12-07T06:00:51;98227.25;;;3.16;77.32
72587;BME280;60621;49.576;11.024;2022-12-07T06:01:56;98221.13;;;3.12;76.67
72587;BME280;60621;49.576;11.024;2022-12-07T06:02:58;98224.34;;;3.08;76.53